Triumph — WDC9555 — position and weather

sailwx.info

Track history (hours):
 
Tides and Currents Weather Stations Pressure Air Temp Water Temp Dewpoint Dewpoint Depression Visibility Wind Speed Wind Dir Waves Ship Positions

Triumph

More information available from US FCC via Universal Licensing System and Coast Guard Vessel Documentation Center.

Last reported at 2014-Aug-25 05:31 UTC. Time now 2014-Aug-27 17:15 UTC.
Position N 52°13' W 128°10'.

Length 24 m; draft 4 m.

Type: Tow > 200 m length. MMSI: 367103880.

Date/timePositionNaut miles runAvg speedWind from/ knotsBaromVisibWave heightAir tempDewpointWater temp
2014-Aug-25 05:31N 52°13' W 128°10'13 6.4
2014-Aug-25 03:33N 52°04' W 127°56'32 7.7
2014-Aug-24 23:21N 51°32' W 127°52'7 8.1
2014-Aug-24 22:28N 51°25' W 127°51'7 7.3
2014-Aug-24 21:27N 51°17' W 127°53'6 7.2
2014-Aug-24 20:33N 51°11' W 127°51'7 6.7
2014-Aug-24 19:33N 51°05' W 127°46'27 7.9
2014-Aug-24 16:08N 50°48' W 127°12'16 8.7
2014-Aug-24 14:19N 50°40' W 126°51'9 9.9
2014-Aug-24 13:26N 50°34' W 126°41'8 8.6
2014-Aug-24 12:33N 50°31' W 126°31'10 8.6
2014-Aug-24 11:25N 50°30' W 126°15'220 6.9
2014-Aug-23 03:33N 47°49' W 122°27'9 8.7
2014-Aug-23 02:33N 47°40' W 122°27'6 6.2
2014-Aug-23 01:33N 47°35' W 122°22'2 2.2
2014-Aug-23 00:31N 47°33' W 122°20'0 0.0
2014-Aug-22 23:11N 47°33' W 122°20'0 0.7
2014-Aug-22 22:33N 47°33' W 122°21'7 7.4
2014-Aug-22 21:33N 47°40' W 122°25'  
2014-Aug-18 08:33N 47°40' W 122°22'3 2.7
2014-Aug-18 07:33N 47°37' W 122°25'4 4.1
2014-Aug-18 06:33N 47°34' W 122°21'1 1.0
2014-Aug-18 05:33N 47°33' W 122°20'3 3.3
2014-Aug-18 04:33N 47°36' W 122°22'6 6.0
2014-Aug-18 03:33N 47°41' W 122°28'8 8.1
2014-Aug-18 02:33N 47°49' W 122°28'8 7.6
2014-Aug-18 01:33N 47°56' W 122°32'8 7.2
2014-Aug-18 00:30N 48°02' W 122°39'39 6.5
2014-Aug-17 18:33N 48°41' W 122°44'6 6.0
2014-Aug-17 17:32N 48°46' W 122°49'7 6.9
2014-Aug-17 16:32N 48°50' W 122°58'7 6.8
2014-Aug-17 15:33N 48°53' W 123°06'7 7.2
2014-Aug-17 14:33N 48°58' W 123°14'8 7.8
2014-Aug-17 13:33N 49°03' W 123°23'8 7.7
2014-Aug-17 12:33N 49°09' W 123°32'8 7.9
2014-Aug-17 11:33N 49°14' W 123°40'8 7.9
2014-Aug-17 10:32N 49°20' W 123°49'8 8.0
2014-Aug-17 09:33N 49°25' W 123°58'16 7.7
2014-Aug-17 07:26N 49°33' W 124°20'7 7.7
2014-Aug-17 06:29N 49°37' W 124°30'8 7.6
2014-Aug-17 05:30N 49°42' W 124°39'7 7.5
2014-Aug-17 04:30N 49°46' W 124°48'7 6.9
2014-Aug-17 03:26N 49°51' W 124°57'11 4.7
2014-Aug-17 01:03N 49°44' W 124°43'6 8.3
2014-Aug-17 00:23N 49°41' W 124°36'32 7.8
2014-Aug-16 20:16N 49°23' W 123°55'6 7.8
2014-Aug-16 19:28N 49°19' W 123°48'7 7.6
2014-Aug-16 18:33N 49°15' W 123°39'8 7.7
2014-Aug-16 17:33N 49°10' W 123°30'8 7.5
2014-Aug-16 16:33N 49°04' W 123°22'8 7.9
2014-Aug-16 15:33N 48°59' W 123°13'9 8.5
2014-Aug-16 14:33N 48°54' W 123°03'9 8.6
2014-Aug-16 13:33N 48°48' W 122°53'8 8.3
2014-Aug-16 12:33N 48°42' W 122°44'7 6.6
2014-Aug-16 11:33N 48°36' W 122°45'6 6.1
2014-Aug-16 10:33N 48°30' W 122°44'31 7.2
2014-Aug-16 06:17N 47°60' W 122°36'210.4
2014-Aug-16 06:05N 47°58' W 122°34'5 9.2
2014-Aug-16 05:33N 47°55' W 122°29'1 8.2
2014-Aug-16 05:29N 47°54' W 122°28'8 8.1
2014-Aug-16 04:33N 47°47' W 122°26'0 7.9
2014-Aug-16 04:30N 47°46' W 122°26'7 7.8
2014-Aug-16 03:33N 47°39' W 122°27'0 7.2
2014-Aug-16 03:29N 47°39' W 122°27'5 5.6
2014-Aug-16 02:33N 47°35' W 122°22'0 4.5
2014-Aug-16 02:29N 47°34' W 122°21'1 1.4
2014-Aug-16 01:28N 47°33' W 122°20'0 0.0
2014-Aug-16 01:24N 47°33' W 122°20'0 0.0
2014-Aug-16 00:29N 47°33' W 122°20'0 0.0
2014-Aug-16 00:19N 47°33' W 122°20'1 1.5
2014-Aug-15 23:33N 47°34' W 122°21'1 7.6
2014-Aug-15 23:29N 47°35' W 122°22'6 6.1
2014-Aug-15 22:33N 47°40' W 122°24'0 0.0
2014-Aug-15 22:33N 47°40' W 122°24'0 0.2
2014-Aug-15 21:31N 47°40' W 122°24'0 0.0
2014-Aug-15 21:28N 47°40' W 122°24'1 1.4
2014-Aug-15 20:33N 47°39' W 122°22'0 0.0
2014-Aug-15 20:33N 47°39' W 122°22'  
Track history (hours):
 
Tides and Currents Weather Stations Pressure Air Temp Water Temp Dewpoint Dewpoint Depression Visibility Wind Speed Wind Dir Waves Ship Positions

Triumph

More information available from US FCC via Universal Licensing System and Coast Guard Vessel Documentation Center.

Last reported at 2014-Aug-25 05:31 UTC. Time now 2014-Aug-27 17:15 UTC.
Position N 52°13' W 128°10'.

Length 24 m; draft 4 m.

Type: Tow > 200 m length. MMSI: 367103880.

Date/timePositionNaut miles runAvg speedWind from/ knotsBaromVisibWave heightAir tempDewpointWater temp
2014-Aug-25 05:31N 52°13' W 128°10'13 6.4
2014-Aug-25 03:33N 52°04' W 127°56'32 7.7
2014-Aug-24 23:21N 51°32' W 127°52'7 8.1
2014-Aug-24 22:28N 51°25' W 127°51'7 7.3
2014-Aug-24 21:27N 51°17' W 127°53'6 7.2
2014-Aug-24 20:33N 51°11' W 127°51'7 6.7
2014-Aug-24 19:33N 51°05' W 127°46'27 7.9
2014-Aug-24 16:08N 50°48' W 127°12'16 8.7
2014-Aug-24 14:19N 50°40' W 126°51'9 9.9
2014-Aug-24 13:26N 50°34' W 126°41'8 8.6
2014-Aug-24 12:33N 50°31' W 126°31'10 8.6
2014-Aug-24 11:25N 50°30' W 126°15'220 6.9
2014-Aug-23 03:33N 47°49' W 122°27'9 8.7
2014-Aug-23 02:33N 47°40' W 122°27'6 6.2
2014-Aug-23 01:33N 47°35' W 122°22'2 2.2
2014-Aug-23 00:31N 47°33' W 122°20'0 0.0
2014-Aug-22 23:11N 47°33' W 122°20'0 0.7
2014-Aug-22 22:33N 47°33' W 122°21'7 7.4
2014-Aug-22 21:33N 47°40' W 122°25'  
2014-Aug-18 08:33N 47°40' W 122°22'3 2.7
2014-Aug-18 07:33N 47°37' W 122°25'4 4.1
2014-Aug-18 06:33N 47°34' W 122°21'1 1.0
2014-Aug-18 05:33N 47°33' W 122°20'3 3.3
2014-Aug-18 04:33N 47°36' W 122°22'6 6.0
2014-Aug-18 03:33N 47°41' W 122°28'8 8.1
2014-Aug-18 02:33N 47°49' W 122°28'8 7.6
2014-Aug-18 01:33N 47°56' W 122°32'8 7.2
2014-Aug-18 00:30N 48°02' W 122°39'39 6.5
2014-Aug-17 18:33N 48°41' W 122°44'6 6.0
2014-Aug-17 17:32N 48°46' W 122°49'7 6.9
2014-Aug-17 16:32N 48°50' W 122°58'7 6.8
2014-Aug-17 15:33N 48°53' W 123°06'7 7.2
2014-Aug-17 14:33N 48°58' W 123°14'8 7.8
2014-Aug-17 13:33N 49°03' W 123°23'8 7.7
2014-Aug-17 12:33N 49°09' W 123°32'8 7.9
2014-Aug-17 11:33N 49°14' W 123°40'8 7.9
2014-Aug-17 10:32N 49°20' W 123°49'8 8.0
2014-Aug-17 09:33N 49°25' W 123°58'16 7.7
2014-Aug-17 07:26N 49°33' W 124°20'7 7.7
2014-Aug-17 06:29N 49°37' W 124°30'8 7.6
2014-Aug-17 05:30N 49°42' W 124°39'7 7.5
2014-Aug-17 04:30N 49°46' W 124°48'7 6.9
2014-Aug-17 03:26N 49°51' W 124°57'11 4.7
2014-Aug-17 01:03N 49°44' W 124°43'6 8.3
2014-Aug-17 00:23N 49°41' W 124°36'32 7.8
2014-Aug-16 20:16N 49°23' W 123°55'6 7.8
2014-Aug-16 19:28N 49°19' W 123°48'7 7.6
2014-Aug-16 18:33N 49°15' W 123°39'8 7.7
2014-Aug-16 17:33N 49°10' W 123°30'8 7.5
2014-Aug-16 16:33N 49°04' W 123°22'8 7.9
2014-Aug-16 15:33N 48°59' W 123°13'9 8.5
2014-Aug-16 14:33N 48°54' W 123°03'9 8.6
2014-Aug-16 13:33N 48°48' W 122°53'8 8.3
2014-Aug-16 12:33N 48°42' W 122°44'7 6.6
2014-Aug-16 11:33N 48°36' W 122°45'6 6.1
2014-Aug-16 10:33N 48°30' W 122°44'31 7.2
2014-Aug-16 06:17N 47°60' W 122°36'210.4
2014-Aug-16 06:05N 47°58' W 122°34'5 9.2
2014-Aug-16 05:33N 47°55' W 122°29'1 8.2
2014-Aug-16 05:29N 47°54' W 122°28'8 8.1
2014-Aug-16 04:33N 47°47' W 122°26'0 7.9
2014-Aug-16 04:30N 47°46' W 122°26'7 7.8
2014-Aug-16 03:33N 47°39' W 122°27'0 7.2
2014-Aug-16 03:29N 47°39' W 122°27'5 5.6
2014-Aug-16 02:33N 47°35' W 122°22'0 4.5
2014-Aug-16 02:29N 47°34' W 122°21'1 1.4
2014-Aug-16 01:28N 47°33' W 122°20'0 0.0
2014-Aug-16 01:24N 47°33' W 122°20'0 0.0
2014-Aug-16 00:29N 47°33' W 122°20'0 0.0
2014-Aug-16 00:19N 47°33' W 122°20'1 1.5
2014-Aug-15 23:33N 47°34' W 122°21'1 7.6
2014-Aug-15 23:29N 47°35' W 122°22'6 6.1
2014-Aug-15 22:33N 47°40' W 122°24'0 0.0
2014-Aug-15 22:33N 47°40' W 122°24'0 0.2
2014-Aug-15 21:31N 47°40' W 122°24'0 0.0
2014-Aug-15 21:28N 47°40' W 122°24'1 1.4
2014-Aug-15 20:33N 47°39' W 122°22'0 0.0
2014-Aug-15 20:33N 47°39' W 122°22'  

Dump ship's entire track history